<?xml version="1.0" encoding="UTF-8" standalone="no" ?>
<gpx xmlns="http://www.topografix.com/GPX/1/1" xmlns:xsi="http://www.w3.org/2001/XMLSchema-instance" xsi:schemaLocation="http://www.topografix.com/GPX/1/1 http://www.topografix.com/GPX/1/1/gpx.xsd" version="1.1" creator="VisuGPX - https://www.visugpx.com">
  <metadata>
    <name>StFlorentVieil_BoucleMarillais_17km</name>
    <desc><![CDATA[gnerando idor:8113101]]></desc>
  </metadata>
  <trk>
    <name><![CDATA[StFlorentVieil_17km-8113101]]></name>
    <extensions>
      <line xmlns="http://www.topografix.com/GPX/gpx_style/0/2">
        <color>0000FF</color>
        <width>4</width>
      </line>
    </extensions>
    <trkseg>
      <trkpt lat="47.36399" lon="-1.01421">
        <ele>13</ele>
        <time>2023-11-12T17:34:07Z</time>
      </trkpt>
      <trkpt lat="47.36446" lon="-1.01915">
        <ele>32</ele>
        <time>2023-11-12T17:41:38Z</time>
      </trkpt>
      <trkpt lat="47.36409" lon="-1.02602">
        <ele>18</ele>
        <time>2023-11-12T17:52:01Z</time>
      </trkpt>
      <trkpt lat="47.36374" lon="-1.02675">
        <ele>20</ele>
        <time>2023-11-12T17:53:22Z</time>
      </trkpt>
      <trkpt lat="47.36409" lon="-1.02898">
        <ele>11</ele>
        <time>2023-11-12T17:56:49Z</time>
      </trkpt>
      <trkpt lat="47.36348" lon="-1.02984">
        <ele>14</ele>
        <time>2023-11-12T17:58:41Z</time>
      </trkpt>
      <trkpt lat="47.36295" lon="-1.03177">
        <ele>12</ele>
        <time>2023-11-12T18:01:49Z</time>
      </trkpt>
      <trkpt lat="47.36252" lon="-1.03125">
        <ele>15</ele>
        <time>2023-11-12T18:03:04Z</time>
      </trkpt>
      <trkpt lat="47.36202" lon="-1.03396">
        <ele>13</ele>
        <time>2023-11-12T18:07:17Z</time>
      </trkpt>
      <trkpt lat="47.36112" lon="-1.03563">
        <ele>12</ele>
        <time>2023-11-12T18:10:30Z</time>
      </trkpt>
      <trkpt lat="47.3606" lon="-1.03752">
        <ele>10</ele>
        <time>2023-11-12T18:13:35Z</time>
      </trkpt>
      <trkpt lat="47.36141" lon="-1.03773">
        <ele>10</ele>
        <time>2023-11-12T18:15:24Z</time>
      </trkpt>
      <trkpt lat="47.3629" lon="-1.03996">
        <ele>9</ele>
        <time>2023-11-12T18:20:08Z</time>
      </trkpt>
      <trkpt lat="47.36351" lon="-1.04232">
        <ele>10</ele>
        <time>2023-11-12T18:23:56Z</time>
      </trkpt>
      <trkpt lat="47.36415" lon="-1.04803">
        <ele>12</ele>
        <time>2023-11-12T18:32:39Z</time>
      </trkpt>
      <trkpt lat="47.36522" lon="-1.05194">
        <ele>11</ele>
        <time>2023-11-12T18:39:00Z</time>
      </trkpt>
      <trkpt lat="47.36662" lon="-1.05692">
        <ele>11</ele>
        <time>2023-11-12T18:47:08Z</time>
      </trkpt>
      <trkpt lat="47.36705" lon="-1.05902">
        <ele>10</ele>
        <time>2023-11-12T18:50:26Z</time>
      </trkpt>
      <trkpt lat="47.36769" lon="-1.06357">
        <ele>10</ele>
        <time>2023-11-12T18:57:26Z</time>
      </trkpt>
      <trkpt lat="47.3683" lon="-1.0646">
        <ele>11</ele>
        <time>2023-11-12T18:59:30Z</time>
      </trkpt>
      <trkpt lat="47.36862" lon="-1.06786">
        <ele>10</ele>
        <time>2023-11-12T19:04:27Z</time>
      </trkpt>
      <trkpt lat="47.36862" lon="-1.07666">
        <ele>8</ele>
        <time>2023-11-12T19:17:43Z</time>
      </trkpt>
      <trkpt lat="47.36865" lon="-1.07683">
        <ele>8</ele>
        <time>2023-11-12T19:17:59Z</time>
      </trkpt>
      <trkpt lat="47.36746" lon="-1.09069">
        <ele>9</ele>
        <time>2023-11-12T19:39:01Z</time>
      </trkpt>
      <trkpt lat="47.36644" lon="-1.10039">
        <ele>10</ele>
        <time>2023-11-12T19:53:48Z</time>
      </trkpt>
      <trkpt lat="47.36484" lon="-1.10043">
        <ele>8</ele>
        <time>2023-11-12T19:57:22Z</time>
      </trkpt>
      <trkpt lat="47.36496" lon="-1.10202">
        <ele>9</ele>
        <time>2023-11-12T19:59:47Z</time>
      </trkpt>
      <trkpt lat="47.3649" lon="-1.10215">
        <ele>9</ele>
        <time>2023-11-12T20:00:01Z</time>
      </trkpt>
      <trkpt lat="47.36089" lon="-1.10228">
        <ele>9</ele>
        <time>2023-11-12T20:08:56Z</time>
      </trkpt>
      <trkpt lat="47.36031" lon="-1.09786">
        <ele>8</ele>
        <time>2023-11-12T20:15:43Z</time>
      </trkpt>
      <trkpt lat="47.36016" lon="-1.09545">
        <ele>8</ele>
        <time>2023-11-12T20:19:22Z</time>
      </trkpt>
      <trkpt lat="47.36019" lon="-1.09211">
        <ele>9</ele>
        <time>2023-11-12T20:24:24Z</time>
      </trkpt>
      <trkpt lat="47.36069" lon="-1.08837">
        <ele>13</ele>
        <time>2023-11-12T20:30:08Z</time>
      </trkpt>
      <trkpt lat="47.36013" lon="-1.0867">
        <ele>9</ele>
        <time>2023-11-12T20:32:57Z</time>
      </trkpt>
      <trkpt lat="47.35949" lon="-1.08447">
        <ele>8</ele>
        <time>2023-11-12T20:36:36Z</time>
      </trkpt>
      <trkpt lat="47.35938" lon="-1.08249">
        <ele>9</ele>
        <time>2023-11-12T20:39:35Z</time>
      </trkpt>
      <trkpt lat="47.35894" lon="-1.08151">
        <ele>12</ele>
        <time>2023-11-12T20:41:22Z</time>
      </trkpt>
      <trkpt lat="47.359" lon="-1.08065">
        <ele>13</ele>
        <time>2023-11-12T20:42:40Z</time>
      </trkpt>
      <trkpt lat="47.35795" lon="-1.08026">
        <ele>21</ele>
        <time>2023-11-12T20:45:04Z</time>
      </trkpt>
      <trkpt lat="47.35787" lon="-1.0794">
        <ele>22</ele>
        <time>2023-11-12T20:46:23Z</time>
      </trkpt>
      <trkpt lat="47.35708" lon="-1.07902">
        <ele>26</ele>
        <time>2023-11-12T20:48:14Z</time>
      </trkpt>
      <trkpt lat="47.35612" lon="-1.07975">
        <ele>28</ele>
        <time>2023-11-12T20:50:38Z</time>
      </trkpt>
      <trkpt lat="47.35595" lon="-1.08061">
        <ele>28</ele>
        <time>2023-11-12T20:51:59Z</time>
      </trkpt>
      <trkpt lat="47.3538" lon="-1.07988">
        <ele>28</ele>
        <time>2023-11-12T20:56:53Z</time>
      </trkpt>
      <trkpt lat="47.35246" lon="-1.08005">
        <ele>26</ele>
        <time>2023-11-12T20:59:53Z</time>
      </trkpt>
      <trkpt lat="47.35095" lon="-1.08073">
        <ele>25</ele>
        <time>2023-11-12T21:03:23Z</time>
      </trkpt>
      <trkpt lat="47.34923" lon="-1.07992">
        <ele>27</ele>
        <time>2023-11-12T21:07:24Z</time>
      </trkpt>
      <trkpt lat="47.34923" lon="-1.07833">
        <ele>26</ele>
        <time>2023-11-12T21:09:48Z</time>
      </trkpt>
      <trkpt lat="47.34874" lon="-1.07528">
        <ele>29</ele>
        <time>2023-11-12T21:14:31Z</time>
      </trkpt>
      <trkpt lat="47.34911" lon="-1.07288">
        <ele>31</ele>
        <time>2023-11-12T21:18:14Z</time>
      </trkpt>
      <trkpt lat="47.34958" lon="-1.06348">
        <ele>30</ele>
        <time>2023-11-12T21:32:26Z</time>
      </trkpt>
      <trkpt lat="47.35249" lon="-1.05477">
        <ele>29</ele>
        <time>2023-11-12T21:47:04Z</time>
      </trkpt>
      <trkpt lat="47.35493" lon="-1.05305">
        <ele>25</ele>
        <time>2023-11-12T21:53:05Z</time>
      </trkpt>
      <trkpt lat="47.35324" lon="-1.05151">
        <ele>25</ele>
        <time>2023-11-12T21:57:30Z</time>
      </trkpt>
      <trkpt lat="47.35287" lon="-1.04928">
        <ele>24</ele>
        <time>2023-11-12T22:00:58Z</time>
      </trkpt>
      <trkpt lat="47.35205" lon="-1.04481">
        <ele>19</ele>
        <time>2023-11-12T22:07:56Z</time>
      </trkpt>
      <trkpt lat="47.35289" lon="-1.04413">
        <ele>15</ele>
        <time>2023-11-12T22:10:04Z</time>
      </trkpt>
      <trkpt lat="47.35423" lon="-1.0434">
        <ele>13</ele>
        <time>2023-11-12T22:13:15Z</time>
      </trkpt>
      <trkpt lat="47.35598" lon="-1.04061">
        <ele>10</ele>
        <time>2023-11-12T22:18:58Z</time>
      </trkpt>
      <trkpt lat="47.35795" lon="-1.0382">
        <ele>10</ele>
        <time>2023-11-12T22:24:40Z</time>
      </trkpt>
      <trkpt lat="47.36034" lon="-1.03726">
        <ele>11</ele>
        <time>2023-11-12T22:30:10Z</time>
      </trkpt>
      <trkpt lat="47.36127" lon="-1.0352">
        <ele>12</ele>
        <time>2023-11-12T22:33:54Z</time>
      </trkpt>
      <trkpt lat="47.3615" lon="-1.03348">
        <ele>12</ele>
        <time>2023-11-12T22:36:32Z</time>
      </trkpt>
      <trkpt lat="47.36124" lon="-1.03078">
        <ele>20</ele>
        <time>2023-11-12T22:40:39Z</time>
      </trkpt>
      <trkpt lat="47.35909" lon="-1.02559">
        <ele>22</ele>
        <time>2023-11-12T22:49:49Z</time>
      </trkpt>
      <trkpt lat="47.35915" lon="-1.02417">
        <ele>22</ele>
        <time>2023-11-12T22:51:57Z</time>
      </trkpt>
      <trkpt lat="47.36226" lon="-1.02344">
        <ele>42</ele>
        <time>2023-11-12T22:58:57Z</time>
      </trkpt>
      <trkpt lat="47.36249" lon="-1.01958">
        <ele>41</ele>
        <time>2023-11-12T23:04:48Z</time>
      </trkpt>
      <trkpt lat="47.36321" lon="-1.01937">
        <ele>44</ele>
        <time>2023-11-12T23:06:26Z</time>
      </trkpt>
      <trkpt lat="47.36374" lon="-1.01593">
        <ele>20</ele>
        <time>2023-11-12T23:11:44Z</time>
      </trkpt>
      <trkpt lat="47.36356" lon="-1.01469">
        <ele>16</ele>
        <time>2023-11-12T23:13:39Z</time>
      </trkpt>
      <trkpt lat="47.36394" lon="-1.01422">
        <ele>13</ele>
        <time>2023-11-12T23:14:45Z</time>
      </trkpt>
    </trkseg>
  </trk>
</gpx>